Time;durP1;ratioP1;P1;durP2;ratioP2;P2;SDS_P1;SDS_P2;PMS_P1;PMS_P2;Temp;Humidity;BMP_temperature;BMP_pressure;BME280_temperature;BME280_humidity;BME280_pressure;Samples;Min_cycle;Max_cycle;Signal;HPM_P1;HPM_P2
2021/07/17 00:01:34;;;;;;;16.20;14.45;;;;;;;;;;4977398;28;20043;-72
2021/07/17 00:04:00;;;;;;;22.13;13.35;;;;;;;;;;4976989;28;20077;-73
2021/07/17 00:06:26;;;;;;;16.75;14.00;;;;;;;;;;4976807;28;20522;-72
2021/07/17 00:08:52;;;;;;;14.57;13.10;;;;;;;;;;4977185;28;20495;-72
2021/07/17 00:11:18;;;;;;;14.95;13.43;;;;;;;;;;4977745;28;20043;-73
2021/07/17 00:13:47;;;;;;;16.08;13.77;;;;;;;;;;4977424;28;20038;-72
2021/07/17 00:16:13;;;;;;;17.60;14.52;;;;;;;;;;4978025;28;20030;-72
2021/07/17 00:18:39;;;;;;;18.48;14.15;;;;;;;;;;4977925;28;20026;-72
2021/07/17 00:21:05;;;;;;;14.88;13.32;;;;;;;;;;4978334;28;20388;-71
2021/07/17 00:23:31;;;;;;;15.93;14.23;;;;;;;;;;4977808;28;20027;-72
2021/07/17 00:25:58;;;;;;;17.17;13.30;;;;;;;;;;4978237;28;20030;-72
2021/07/17 00:28:24;;;;;;;18.35;14.10;;;;;;;;;;4978558;28;20031;-71
2021/07/17 00:30:50;;;;;;;19.38;15.43;;;;;;;;;;4977952;28;20042;-72
2021/07/17 00:33:17;;;;;;;15.68;13.70;;;;;;;;;;4977695;28;20054;-71
2021/07/17 00:35:43;;;;;;;16.58;14.82;;;;;;;;;;4977150;28;20023;-72
2021/07/17 00:38:09;;;;;;;13.80;12.15;;;;;;;;;;4977900;28;20080;-71
2021/07/17 00:40:35;;;;;;;14.80;13.32;;;;;;;;;;4977338;28;20027;-72
2021/07/17 00:43:01;;;;;;;20.67;15.93;;;;;;;;;;4977358;28;20027;-71
2021/07/17 00:45:27;;;;;;;18.52;15.65;;;;;;;;;;4977379;28;20469;-72
2021/07/17 00:47:53;;;;;;;24.15;13.70;;;;;;;;;;4976993;28;20465;-72
2021/07/17 00:50:20;;;;;;;15.93;14.32;;;;;;;;;;4977478;28;20038;-72
2021/07/17 00:52:46;;;;;;;18.67;13.70;;;;;;;;;;4977559;28;20030;-71
2021/07/17 00:55:12;;;;;;;16.95;14.98;;;;;;;;;;4976933;28;20125;-72
2021/07/17 00:57:39;;;;;;;22.60;14.80;;;;;;;;;;4977195;28;20534;-71
2021/07/17 01:00:06;;;;;;;17.35;13.10;;;;;;;;;;4977982;28;20540;-72
2021/07/17 01:02:35;;;;;;;17.15;14.05;;;;;;;;;;4977736;28;20556;-72
2021/07/17 01:05:01;;;;;;;19.08;13.88;;;;;;;;;;4977244;28;20055;-71
2021/07/17 01:07:27;;;;;;;15.98;14.45;;;;;;;;;;4977071;28;20123;-71
2021/07/17 01:09:53;;;;;;;17.38;13.88;;;;;;;;;;4976650;28;20030;-72
2021/07/17 01:12:20;;;;;;;16.70;14.50;;;;;;;;;;4976869;28;20023;-72
2021/07/17 01:14:46;;;;;;;19.02;13.50;;;;;;;;;;4977642;28;20034;-71
2021/07/17 01:17:12;;;;;;;15.02;13.35;;;;;;;;;;4977310;28;20031;-72
2021/07/17 01:19:38;;;;;;;18.55;14.88;;;;;;;;;;4976583;28;20383;-72
2021/07/17 01:22:04;;;;;;;16.67;14.55;;;;;;;;;;4977038;28;20469;-72
2021/07/17 01:24:30;;;;;;;15.93;13.60;;;;;;;;;;4976700;28;20035;-72
2021/07/17 01:26:56;;;;;;;18.77;14.13;;;;;;;;;;4977172;28;20034;-71
2021/07/17 01:29:23;;;;;;;17.70;14.48;;;;;;;;;;4977121;28;20110;-72
2021/07/17 01:31:49;;;;;;;18.05;15.07;;;;;;;;;;4975987;28;20368;-72
2021/07/17 01:34:15;;;;;;;14.75;13.32;;;;;;;;;;4976528;28;20035;-71
2021/07/17 01:36:41;;;;;;;20.15;14.02;;;;;;;;;;4976927;28;20105;-71
2021/07/17 01:39:07;;;;;;;14.77;13.27;;;;;;;;;;4976663;28;20069;-72
2021/07/17 01:41:33;;;;;;;16.33;13.13;;;;;;;;;;4976367;28;20046;-72
2021/07/17 01:43:59;;;;;;;18.63;14.48;;;;;;;;;;4977140;28;20122;-71
2021/07/17 01:46:27;;;;;;;19.88;13.57;;;;;;;;;;4976909;28;20425;-71
2021/07/17 01:48:54;;;;;;;20.17;15.57;;;;;;;;;;4976605;28;20380;-71
2021/07/17 01:51:20;;;;;;;16.98;14.05;;;;;;;;;;4976210;28;20053;-71
2021/07/17 01:53:46;;;;;;;14.93;13.30;;;;;;;;;;4975451;28;20057;-72
2021/07/17 01:56:13;;;;;;;15.00;12.43;;;;;;;;;;4976630;28;20380;-72
2021/07/17 01:58:39;;;;;;;19.05;17.27;;;;;;;;;;4976266;28;20030;-71
2021/07/17 02:01:05;;;;;;;20.55;16.42;;;;;;;;;;4976914;28;20046;-71
2021/07/17 02:03:31;;;;;;;23.35;16.73;;;;;;;;;;4976255;28;20074;-72
2021/07/17 02:05:58;;;;;;;16.55;14.13;;;;;;;;;;4976070;28;20035;-71
2021/07/17 02:08:24;;;;;;;15.48;13.32;;;;;;;;;;4974682;28;20030;-72
2021/07/17 02:10:50;;;;;;;17.67;13.23;;;;;;;;;;4975374;28;20090;-71
2021/07/17 02:13:16;;;;;;;18.13;16.02;;;;;;;;;;4976387;28;20077;-72
2021/07/17 02:15:43;;;;;;;18.17;14.48;;;;;;;;;;4976103;28;20054;-71
2021/07/17 02:18:09;;;;;;;15.93;14.40;;;;;;;;;;4975793;28;20121;-71
2021/07/17 02:20:36;;;;;;;16.70;13.68;;;;;;;;;;4975018;28;20113;-72
2021/07/17 02:23:02;;;;;;;15.05;13.45;;;;;;;;;;4975742;28;20437;-71
2021/07/17 02:25:28;;;;;;;14.57;13.10;;;;;;;;;;4976026;28;20054;-71
2021/07/17 02:27:54;;;;;;;19.52;15.82;;;;;;;;;;4974901;28;20019;-72
2021/07/17 02:30:20;;;;;;;16.17;14.52;;;;;;;;;;4976280;28;20428;-72
2021/07/17 02:32:46;;;;;;;16.65;14.95;;;;;;;;;;4975095;28;20023;-72
2021/07/17 02:35:12;;;;;;;19.95;15.15;;;;;;;;;;4975059;28;20035;-72
2021/07/17 02:37:38;;;;;;;17.48;14.75;;;;;;;;;;4974051;28;20477;-72
2021/07/17 02:40:05;;;;;;;14.07;12.77;;;;;;;;;;4974703;28;20038;-71
2021/07/17 02:42:31;;;;;;;17.73;13.93;;;;;;;;;;4975041;28;20381;-72
2021/07/17 02:44:57;;;;;;;14.57;13.02;;;;;;;;;;4974917;28;20174;-72
2021/07/17 02:47:23;;;;;;;15.25;13.77;;;;;;;;;;4974373;28;20030;-71
2021/07/17 02:49:49;;;;;;;18.70;14.52;;;;;;;;;;4974869;28;20130;-71
2021/07/17 02:52:15;;;;;;;20.23;16.23;;;;;;;;;;4975273;28;20496;-72
2021/07/17 02:54:41;;;;;;;14.75;12.35;;;;;;;;;;4974588;28;20420;-72
2021/07/17 02:57:07;;;;;;;19.70;16.20;;;;;;;;;;4974055;28;20441;-71
2021/07/17 02:59:33;;;;;;;18.20;16.60;;;;;;;;;;4975255;28;20050;-72
2021/07/17 03:01:59;;;;;;;21.67;14.10;;;;;;;;;;4975489;28;20043;-71
2021/07/17 03:04:26;;;;;;;24.95;14.98;;;;;;;;;;4974528;28;20050;-71
2021/07/17 03:06:52;;;;;;;17.23;14.20;;;;;;;;;;4977874;28;20094;-72
2021/07/17 03:09:18;;;;;;;17.83;13.93;;;;;;;;;;4978788;28;20031;-72
2021/07/17 03:11:44;;;;;;;16.65;13.88;;;;;;;;;;4978110;28;20027;-72
2021/07/17 03:14:10;;;;;;;19.95;14.85;;;;;;;;;;4978959;28;20118;-71
2021/07/17 03:16:37;;;;;;;20.35;14.60;;;;;;;;;;4978162;28;20030;-71
2021/07/17 03:19:03;;;;;;;17.02;15.43;;;;;;;;;;4978314;28;20440;-71
2021/07/17 03:21:30;;;;;;;20.65;14.77;;;;;;;;;;4978505;28;20031;-72
2021/07/17 03:23:56;;;;;;;19.50;15.02;;;;;;;;;;4978200;28;20046;-71
2021/07/17 03:26:22;;;;;;;19.30;16.45;;;;;;;;;;4978276;28;20035;-71
2021/07/17 03:28:48;;;;;;;16.80;14.10;;;;;;;;;;4978806;28;20113;-71
2021/07/17 03:31:14;;;;;;;17.60;14.73;;;;;;;;;;4977772;28;20023;-71
2021/07/17 03:33:40;;;;;;;22.08;14.95;;;;;;;;;;4977247;28;20033;-71
2021/07/17 03:36:07;;;;;;;24.08;15.82;;;;;;;;;;4977506;28;20481;-72
2021/07/17 03:38:34;;;;;;;26.25;17.65;;;;;;;;;;4978102;28;20453;-71
2021/07/17 03:41:00;;;;;;;23.60;17.60;;;;;;;;;;4978509;28;20130;-71
2021/07/17 03:43:26;;;;;;;25.48;18.15;;;;;;;;;;4978479;28;20035;-70
2021/07/17 03:45:52;;;;;;;25.27;20.15;;;;;;;;;;4978286;28;20031;-70
2021/07/17 03:48:18;;;;;;;27.15;16.85;;;;;;;;;;4978354;28;20033;-71
2021/07/17 03:50:44;;;;;;;28.85;16.52;;;;;;;;;;4978535;28;20037;-72
2021/07/17 03:53:10;;;;;;;24.92;16.48;;;;;;;;;;4978507;28;20039;-72
2021/07/17 03:55:36;;;;;;;25.52;17.17;;;;;;;;;;4978178;28;20085;-72
2021/07/17 03:58:02;;;;;;;23.48;17.58;;;;;;;;;;4978459;28;20035;-72
2021/07/17 04:00:28;;;;;;;23.52;15.40;;;;;;;;;;4978308;28;20436;-71
2021/07/17 04:02:54;;;;;;;20.23;16.25;;;;;;;;;;4978389;28;20027;-71
2021/07/17 04:05:20;;;;;;;25.15;16.80;;;;;;;;;;4978244;28;20444;-71
2021/07/17 04:07:47;;;;;;;24.48;16.58;;;;;;;;;;4978095;28;20399;-72
2021/07/17 04:10:13;;;;;;;21.42;18.15;;;;;;;;;;4978529;28;20119;-71
2021/07/17 04:12:39;;;;;;;23.92;17.02;;;;;;;;;;4978805;28;20366;-71
2021/07/17 04:15:06;;;;;;;20.88;18.35;;;;;;;;;;4978225;28;20019;-71
2021/07/17 04:17:33;;;;;;;19.05;16.23;;;;;;;;;;4977414;28;20027;-72
2021/07/17 04:19:59;;;;;;;17.92;16.23;;;;;;;;;;4977676;28;20027;-72
2021/07/17 04:22:25;;;;;;;27.27;16.15;;;;;;;;;;4977830;28;20027;-70
2021/07/17 04:24:51;;;;;;;21.15;14.73;;;;;;;;;;4978149;28;20035;-71
2021/07/17 04:27:17;;;;;;;22.50;16.95;;;;;;;;;;4977134;28;20031;-71
2021/07/17 04:29:43;;;;;;;21.63;16.65;;;;;;;;;;4977495;28;20062;-72
2021/07/17 04:32:09;;;;;;;20.25;17.02;;;;;;;;;;4976257;28;20477;-71
2021/07/17 04:34:35;;;;;;;22.10;16.77;;;;;;;;;;4976373;28;20162;-71
2021/07/17 04:37:01;;;;;;;19.35;17.08;;;;;;;;;;4976706;28;20023;-72
2021/07/17 04:39:27;;;;;;;20.20;16.20;;;;;;;;;;4976580;28;20054;-71
2021/07/17 04:41:53;;;;;;;24.88;20.20;;;;;;;;;;4976299;28;20121;-71
2021/07/17 04:44:19;;;;;;;23.35;18.08;;;;;;;;;;4976226;28;20030;-71
2021/07/17 04:46:45;;;;;;;20.27;16.75;;;;;;;;;;4976218;28;20086;-71
2021/07/17 04:49:11;;;;;;;18.13;15.77;;;;;;;;;;4976630;28;20491;-71
2021/07/17 04:51:37;;;;;;;21.33;16.40;;;;;;;;;;4976154;28;20503;-72
2021/07/17 04:54:03;;;;;;;24.20;18.90;;;;;;;;;;4976208;28;20517;-71
2021/07/17 04:56:29;;;;;;;24.73;21.98;;;;;;;;;;4976499;28;20608;-71
2021/07/17 04:58:55;;;;;;;31.13;22.58;;;;;;;;;;4976476;28;20408;-72
2021/07/17 05:01:21;;;;;;;39.22;22.55;;;;;;;;;;4976159;28;20480;-71
2021/07/17 05:03:48;;;;;;;29.10;20.63;;;;;;;;;;4976221;28;20089;-71
2021/07/17 05:06:14;;;;;;;25.77;22.23;;;;;;;;;;4976227;28;20065;-71
2021/07/17 05:08:40;;;;;;;27.40;21.45;;;;;;;;;;4976280;28;20081;-71
2021/07/17 05:11:06;;;;;;;27.80;23.23;;;;;;;;;;4975837;28;20027;-70
2021/07/17 05:13:32;;;;;;;28.77;21.48;;;;;;;;;;4975431;28;20470;-71
2021/07/17 05:15:58;;;;;;;27.00;21.65;;;;;;;;;;4975959;28;20038;-71
2021/07/17 05:18:24;;;;;;;27.25;24.30;;;;;;;;;;4975700;28;20026;-71
2021/07/17 05:20:50;;;;;;;29.75;22.88;;;;;;;;;;4975405;28;20204;-72
2021/07/17 05:23:17;;;;;;;28.05;20.85;;;;;;;;;;4975782;28;20386;-71
2021/07/17 05:25:43;;;;;;;29.23;24.15;;;;;;;;;;4975700;28;20033;-72
2021/07/17 05:28:09;;;;;;;26.10;21.85;;;;;;;;;;4975176;28;20019;-71
2021/07/17 05:30:35;;;;;;;33.38;22.75;;;;;;;;;;4976298;28;20039;-71
2021/07/17 05:33:01;;;;;;;36.28;25.83;;;;;;;;;;4975819;28;20515;-71
2021/07/17 05:35:28;;;;;;;30.27;22.27;;;;;;;;;;4975768;28;20030;-72
2021/07/17 05:37:55;;;;;;;28.90;25.52;;;;;;;;;;4976116;28;20027;-71
2021/07/17 05:40:21;;;;;;;26.90;23.83;;;;;;;;;;4976309;28;20404;-71
2021/07/17 05:42:48;;;;;;;33.70;26.15;;;;;;;;;;4976728;28;20087;-71
2021/07/17 05:45:14;;;;;;;24.70;21.58;;;;;;;;;;4976452;28;20023;-71
2021/07/17 05:47:40;;;;;;;26.90;24.15;;;;;;;;;;4975514;28;20033;-71
2021/07/17 05:50:06;;;;;;;27.42;22.98;;;;;;;;;;4976462;28;20081;-72
2021/07/17 05:52:32;;;;;;;26.88;21.92;;;;;;;;;;4976254;28;20027;-71
2021/07/17 05:54:58;;;;;;;27.33;21.67;;;;;;;;;;4976410;28;20146;-70
2021/07/17 05:57:25;;;;;;;24.92;21.77;;;;;;;;;;4975813;28;20106;-71
2021/07/17 05:59:52;;;;;;;25.67;22.67;;;;;;;;;;4975792;28;20400;-72
2021/07/17 06:02:18;;;;;;;29.52;22.40;;;;;;;;;;4976057;28;20034;-71
2021/07/17 06:04:44;;;;;;;22.17;18.10;;;;;;;;;;4976455;28;20067;-73
2021/07/17 06:07:10;;;;;;;27.83;21.08;;;;;;;;;;4975332;28;20031;-71
2021/07/17 06:09:36;;;;;;;26.65;21.90;;;;;;;;;;4974966;28;20051;-72
2021/07/17 06:12:03;;;;;;;24.52;20.85;;;;;;;;;;4974859;28;20023;-71
2021/07/17 06:14:29;;;;;;;31.17;22.40;;;;;;;;;;4974667;28;20381;-71
2021/07/17 06:16:55;;;;;;;24.95;22.38;;;;;;;;;;4974751;28;20034;-71
2021/07/17 06:19:21;;;;;;;25.60;19.63;;;;;;;;;;4975066;28;20054;-71
2021/07/17 06:21:47;;;;;;;33.90;24.17;;;;;;;;;;4975500;28;20039;-71
2021/07/17 06:24:13;;;;;;;33.60;23.98;;;;;;;;;;4974920;28;20030;-72
2021/07/17 06:26:39;;;;;;;27.65;22.92;;;;;;;;;;4974739;28;20023;-73
2021/07/17 06:29:05;;;;;;;26.45;21.90;;;;;;;;;;4975087;28;20030;-73
2021/07/17 06:31:31;;;;;;;38.60;23.13;;;;;;;;;;4974596;28;20034;-73
2021/07/17 06:33:57;;;;;;;27.50;20.75;;;;;;;;;;4974554;28;20085;-72
2021/07/17 06:36:23;;;;;;;30.95;22.45;;;;;;;;;;4974652;28;20461;-71
2021/07/17 06:38:49;;;;;;;27.65;22.08;;;;;;;;;;4974561;28;20481;-71
2021/07/17 06:41:15;;;;;;;29.40;25.38;;;;;;;;;;4978450;28;20112;-71
2021/07/17 06:43:41;;;;;;;27.92;21.60;;;;;;;;;;4978388;28;20033;-71
2021/07/17 06:46:07;;;;;;;40.72;23.45;;;;;;;;;;4978440;28;20477;-72
2021/07/17 06:48:33;;;;;;;34.00;29.70;;;;;;;;;;4978186;28;20058;-71
2021/07/17 06:50:59;;;;;;;29.88;22.40;;;;;;;;;;4979013;28;20031;-72
2021/07/17 06:53:25;;;;;;;33.40;26.13;;;;;;;;;;4978388;28;20082;-72
2021/07/17 06:55:51;;;;;;;31.83;26.27;;;;;;;;;;4977894;28;20473;-72
2021/07/17 06:58:18;;;;;;;32.92;25.92;;;;;;;;;;4978566;28;20452;-74
2021/07/17 07:00:44;;;;;;;35.58;26.10;;;;;;;;;;4978221;28;20054;-72
2021/07/17 07:03:11;;;;;;;32.85;26.63;;;;;;;;;;4978349;28;20030;-72
2021/07/17 07:05:37;;;;;;;29.73;26.67;;;;;;;;;;4978062;28;20027;-73
2021/07/17 07:08:03;;;;;;;33.00;24.73;;;;;;;;;;4978627;28;20444;-72
2021/07/17 07:10:29;;;;;;;31.98;23.90;;;;;;;;;;4978631;28;20027;-72
2021/07/17 07:12:55;;;;;;;34.05;25.70;;;;;;;;;;4978084;28;20455;-72
2021/07/17 07:15:21;;;;;;;27.23;21.35;;;;;;;;;;4978188;28;20110;-72
2021/07/17 07:17:47;;;;;;;28.73;19.60;;;;;;;;;;4977613;28;20355;-72
2021/07/17 07:20:14;;;;;;;26.38;21.30;;;;;;;;;;4977830;28;20034;-72
2021/07/17 07:22:40;;;;;;;25.40;19.50;;;;;;;;;;4977785;28;20376;-72
2021/07/17 07:25:06;;;;;;;25.63;18.60;;;;;;;;;;4977948;28;20022;-72
2021/07/17 07:27:33;;;;;;;29.17;23.42;;;;;;;;;;4977715;28;20023;-72
2021/07/17 07:29:59;;;;;;;25.45;19.45;;;;;;;;;;4978537;28;20109;-72
2021/07/17 07:32:25;;;;;;;23.55;21.02;;;;;;;;;;4977855;28;20027;-72
2021/07/17 07:34:51;;;;;;;21.08;18.95;;;;;;;;;;4977566;28;20492;-71
2021/07/17 07:37:17;;;;;;;24.90;18.35;;;;;;;;;;4977510;28;20555;-71
2021/07/17 07:39:43;;;;;;;23.58;19.83;;;;;;;;;;4977268;28;20025;-71
2021/07/17 07:42:09;;;;;;;18.27;16.55;;;;;;;;;;4977145;28;20042;-71
2021/07/17 07:44:36;;;;;;;22.50;20.25;;;;;;;;;;4977457;28;20034;-71
2021/07/17 07:47:03;;;;;;;23.80;19.48;;;;;;;;;;4976976;28;20464;-72
2021/07/17 07:49:29;;;;;;;32.20;16.77;;;;;;;;;;4977409;28;20037;-72
2021/07/17 07:51:55;;;;;;;21.65;17.80;;;;;;;;;;4976361;28;20037;-73
2021/07/17 07:54:21;;;;;;;17.40;15.80;;;;;;;;;;4977055;28;20054;-72
2021/07/17 07:56:47;;;;;;;21.73;17.10;;;;;;;;;;4977144;28;20031;-72
2021/07/17 07:59:13;;;;;;;21.08;18.27;;;;;;;;;;4976873;28;20373;-73
2021/07/17 08:01:39;;;;;;;19.23;15.00;;;;;;;;;;4977113;28;20185;-72
2021/07/17 08:04:05;;;;;;;18.60;16.75;;;;;;;;;;4977374;28;20074;-71
2021/07/17 08:06:31;;;;;;;25.70;18.13;;;;;;;;;;4977775;28;20062;-72
2021/07/17 08:08:57;;;;;;;32.35;17.27;;;;;;;;;;4979083;28;20023;-73
2021/07/17 08:11:23;;;;;;;19.67;16.95;;;;;;;;;;4978655;28;20033;-74
2021/07/17 08:13:50;;;;;;;18.45;15.93;;;;;;;;;;4977741;28;20035;-72
2021/07/17 08:16:16;;;;;;;22.13;16.10;;;;;;;;;;4977028;28;20026;-72
2021/07/17 08:18:42;;;;;;;21.58;16.38;;;;;;;;;;4977071;28;20556;-72
2021/07/17 08:21:08;;;;;;;20.63;17.25;;;;;;;;;;4977212;28;20548;-72
2021/07/17 08:23:34;;;;;;;19.85;18.10;;;;;;;;;;4976936;28;20026;-72
2021/07/17 08:26:00;;;;;;;21.73;15.68;;;;;;;;;;4977591;28;20022;-71
2021/07/17 08:28:26;;;;;;;22.58;14.93;;;;;;;;;;4976179;28;20054;-74
2021/07/17 08:30:52;;;;;;;23.05;18.35;;;;;;;;;;4975974;28;20541;-72
2021/07/17 08:33:18;;;;;;;19.17;16.58;;;;;;;;;;4976591;28;20065;-71
2021/07/17 08:35:44;;;;;;;18.67;16.77;;;;;;;;;;4977287;28;20026;-73
2021/07/17 08:38:10;;;;;;;18.80;16.85;;;;;;;;;;4976473;28;20031;-72
2021/07/17 08:40:36;;;;;;;18.92;16.83;;;;;;;;;;4976132;28;20035;-72
2021/07/17 08:43:02;;;;;;;23.90;18.52;;;;;;;;;;4976861;28;20031;-72
2021/07/17 08:45:28;;;;;;;22.77;19.30;;;;;;;;;;4976510;28;20055;-72
2021/07/17 08:47:56;;;;;;;25.10;17.30;;;;;;;;;;4976179;28;20031;-72
2021/07/17 08:50:23;;;;;;;21.42;17.15;;;;;;;;;;4976880;28;20031;-72
2021/07/17 08:52:51;;;;;;;18.88;16.25;;;;;;;;;;5007896;28;20102;-72
2021/07/17 08:55:17;;;;;;;24.40;17.63;;;;;;;;;;4976631;28;20409;-72
2021/07/17 08:57:43;;;;;;;22.98;18.08;;;;;;;;;;4976264;28;20106;-72
2021/07/17 09:00:12;;;;;;;21.70;19.20;;;;;;;;;;4976401;28;20031;-72
2021/07/17 09:02:38;;;;;;;19.98;18.02;;;;;;;;;;4976278;28;20022;-72
2021/07/17 09:05:05;;;;;;;21.38;19.15;;;;;;;;;;4976591;28;20034;-72
2021/07/17 09:07:31;;;;;;;19.00;15.73;;;;;;;;;;4976351;28;20037;-72
2021/07/17 09:09:58;;;;;;;26.75;17.92;;;;;;;;;;4976242;28;20030;-72
2021/07/17 09:12:24;;;;;;;22.90;18.45;;;;;;;;;;4975924;28;20546;-72
2021/07/17 09:14:50;;;;;;;16.80;15.23;;;;;;;;;;4976032;28;20027;-73
2021/07/17 09:17:32;;;;;;;19.42;17.00;;;;;;;;;;4976926;28;20035;-72
2021/07/17 09:19:59;;;;;;;21.20;16.08;;;;;;;;;;4976338;28;20034;-73
2021/07/17 09:22:40;;;;;;;20.33;18.15;;;;;;;;;;4976067;28;20102;-73
2021/07/17 09:25:07;;;;;;;15.68;13.15;;;;;;;;;;4976350;28;20031;-74
2021/07/17 09:27:33;;;;;;;18.48;14.93;;;;;;;;;;4975838;28;20027;-75
2021/07/17 09:29:59;;;;;;;17.13;15.45;;;;;;;;;;4976578;28;20031;-77
2021/07/17 09:32:25;;;;;;;18.05;16.25;;;;;;;;;;4976069;28;20425;-73
2021/07/17 09:34:51;;;;;;;18.52;16.73;;;;;;;;;;4975221;28;20385;-73
2021/07/17 09:37:21;;;;;;;19.55;17.55;;;;;;;;;;4975091;28;20027;-72
2021/07/17 09:39:49;;;;;;;22.00;15.70;;;;;;;;;;4975289;28;20429;-72
2021/07/17 09:42:16;;;;;;;21.75;17.98;;;;;;;;;;4974979;28;20073;-73
2021/07/17 09:44:42;;;;;;;18.95;15.25;;;;;;;;;;4975147;28;20472;-72
2021/07/17 09:47:16;;;;;;;21.10;16.08;;;;;;;;;;4974712;28;20035;-72
2021/07/17 09:49:42;;;;;;;20.95;18.50;;;;;;;;;;4974835;28;20037;-73
2021/07/17 09:52:12;;;;;;;18.83;14.93;;;;;;;;;;4975360;28;20030;-72
2021/07/17 09:54:38;;;;;;;17.80;16.08;;;;;;;;;;4975156;28;20050;-73
2021/07/17 09:57:04;;;;;;;19.30;17.30;;;;;;;;;;4975442;28;20037;-73
2021/07/17 09:59:30;;;;;;;22.45;15.55;;;;;;;;;;4974775;28;20420;-72
2021/07/17 10:01:56;;;;;;;19.85;15.52;;;;;;;;;;4974742;28;20046;-72
2021/07/17 10:04:22;;;;;;;17.05;15.32;;;;;;;;;;4974649;28;20026;-72
2021/07/17 10:06:56;;;;;;;25.70;15.38;;;;;;;;;;4974651;28;20027;-73
2021/07/17 10:09:24;;;;;;;22.08;15.95;;;;;;;;;;4974508;28;20055;-72
2021/07/17 10:11:53;;;;;;;19.52;17.60;;;;;;;;;;4974619;28;20109;-72
2021/07/17 10:14:23;;;;;;;18.65;16.88;;;;;;;;;;4974576;28;20078;-72
2021/07/17 10:16:49;;;;;;;20.35;16.20;;;;;;;;;;4974973;28;20031;-72
2021/07/17 10:19:16;;;;;;;17.30;15.45;;;;;;;;;;4975029;28;20027;-72
2021/07/17 10:21:42;;;;;;;16.25;14.45;;;;;;;;;;4974372;28;20031;-72
2021/07/17 10:24:08;;;;;;;31.23;17.60;;;;;;;;;;4975127;28;20031;-72
2021/07/17 10:26:34;;;;;;;19.40;17.48;;;;;;;;;;4974969;28;20082;-72
2021/07/17 10:29:03;;;;;;;17.83;16.13;;;;;;;;;;4974436;28;20033;-72
2021/07/17 10:31:29;;;;;;;20.23;18.13;;;;;;;;;;4974625;28;20051;-71
2021/07/17 10:33:55;;;;;;;19.55;17.70;;;;;;;;;;4974503;28;20027;-72
2021/07/17 10:36:21;;;;;;;25.35;19.33;;;;;;;;;;4974645;28;20023;-73
2021/07/17 10:38:47;;;;;;;23.13;16.20;;;;;;;;;;4974421;28;20040;-73
2021/07/17 10:41:14;;;;;;;19.13;15.82;;;;;;;;;;4974254;28;20046;-73
2021/07/17 10:43:40;;;;;;;19.73;17.33;;;;;;;;;;4975402;28;20139;-73
2021/07/17 10:46:12;;;;;;;17.40;14.90;;;;;;;;;;4974975;28;20027;-72
2021/07/17 10:48:38;;;;;;;24.25;18.38;;;;;;;;;;4974480;28;20034;-73
2021/07/17 10:51:26;;;;;;;19.95;17.85;;;;;;;;;;4974483;28;20035;-72
2021/07/17 10:53:54;;;;;;;20.95;18.92;;;;;;;;;;4999760;28;20051;-72
2021/07/17 10:56:36;;;;;;;20.48;18.63;;;;;;;;;;4974405;28;20030;-72
2021/07/17 10:59:10;;;;;;;20.42;18.13;;;;;;;;;;4974384;28;20075;-72
2021/07/17 11:01:56;;;;;;;27.58;17.30;;;;;;;;;;4973843;28;20023;-73
2021/07/17 11:04:31;;;;;;;18.63;17.00;;;;;;;;;;5000790;28;20027;-73
2021/07/17 11:07:14;;;;;;;20.63;18.25;;;;;;;;;;4974578;28;20129;-72
2021/07/17 11:09:48;;;;;;;20.70;16.90;;;;;;;;;;4974164;28;20027;-73
2021/07/17 11:12:16;;;;;;;18.70;16.88;;;;;;;;;;4974628;28;20030;-72
2021/07/17 11:14:43;;;;;;;20.85;17.02;;;;;;;;;;4974551;28;20034;-72
2021/07/17 11:17:09;;;;;;;18.60;16.58;;;;;;;;;;4974469;28;20026;-73
2021/07/17 11:19:36;;;;;;;18.85;17.05;;;;;;;;;;4973883;28;20469;-73
2021/07/17 11:22:09;;;;;;;18.30;16.52;;;;;;;;;;4974202;28;20038;-73
2021/07/17 11:24:35;;;;;;;21.30;15.75;;;;;;;;;;4974146;28;20027;-73
2021/07/17 11:27:11;;;;;;;20.23;16.67;;;;;;;;;;4975953;28;20022;-73
2021/07/17 11:29:39;;;;;;;19.90;16.35;;;;;;;;;;4978436;28;20445;-74
2021/07/17 11:32:06;;;;;;;28.67;16.20;;;;;;;;;;4978294;28;20081;-72
2021/07/17 11:34:35;;;;;;;16.60;14.63;;;;;;;;;;4977373;28;20094;-73
2021/07/17 11:37:03;;;;;;;21.52;15.95;;;;;;;;;;4977251;28;20038;-73
2021/07/17 11:39:30;;;;;;;18.02;15.32;;;;;;;;;;4977575;28;20085;-72
2021/07/17 11:41:57;;;;;;;19.90;16.58;;;;;;;;;;4977095;28;20035;-72
2021/07/17 11:44:30;;;;;;;16.83;15.18;;;;;;;;;;4977116;28;20031;-72
2021/07/17 11:46:57;;;;;;;17.75;16.15;;;;;;;;;;4977578;28;20031;-72
2021/07/17 11:49:26;;;;;;;25.02;15.80;;;;;;;;;;4977360;28;20030;-71
2021/07/17 11:51:53;;;;;;;15.57;13.60;;;;;;;;;;4976631;28;20031;-72
2021/07/17 11:54:23;;;;;;;16.05;14.43;;;;;;;;;;4976983;28;20057;-71
2021/07/17 11:57:09;;;;;;;16.35;14.90;;;;;;;;;;4977408;28;20113;-72
2021/07/17 11:59:36;;;;;;;16.08;14.25;;;;;;;;;;5002988;28;20027;-71
2021/07/17 12:02:08;;;;;;;15.27;13.65;;;;;;;;;;4976833;28;20034;-72
2021/07/17 12:04:34;;;;;;;15.40;13.90;;;;;;;;;;4977384;28;20118;-72
2021/07/17 12:07:02;;;;;;;16.17;14.45;;;;;;;;;;4976718;28;20027;-71
2021/07/17 12:09:32;;;;;;;14.65;13.05;;;;;;;;;;4976858;28;20500;-72
2021/07/17 12:12:17;;;;;;;15.68;14.05;;;;;;;;;;4976514;28;20469;-72
2021/07/17 12:14:44;;;;;;;15.02;13.57;;;;;;;;;;5002379;28;20027;-72
2021/07/17 12:17:10;;;;;;;15.23;13.70;;;;;;;;;;4976691;28;20030;-72
2021/07/17 12:19:36;;;;;;;16.05;14.48;;;;;;;;;;4976499;28;20027;-72
2021/07/17 12:22:02;;;;;;;15.68;13.02;;;;;;;;;;4976738;28;20039;-72
2021/07/17 12:24:28;;;;;;;15.82;14.23;;;;;;;;;;4976522;28;20027;-72
2021/07/17 12:27:02;;;;;;;14.80;13.02;;;;;;;;;;4976234;28;20030;-72
2021/07/17 12:29:28;;;;;;;14.80;13.05;;;;;;;;;;4975973;28;20433;-72
2021/07/17 12:31:58;;;;;;;15.18;12.65;;;;;;;;;;4976175;28;20035;-72
2021/07/17 12:34:24;;;;;;;16.85;15.25;;;;;;;;;;4976811;28;20104;-72
2021/07/17 12:36:50;;;;;;;16.48;14.90;;;;;;;;;;4975950;28;20033;-71
2021/07/17 12:39:20;;;;;;;16.52;14.80;;;;;;;;;;4976474;28;20063;-72
2021/07/17 12:41:46;;;;;;;17.80;13.60;;;;;;;;;;4975593;28;20054;-73
2021/07/17 12:44:15;;;;;;;16.52;14.15;;;;;;;;;;4975990;28;20042;-73
2021/07/17 12:46:43;;;;;;;14.77;13.32;;;;;;;;;;4976375;28;20030;-72
2021/07/17 12:49:11;;;;;;;15.30;13.70;;;;;;;;;;4976169;28;20023;-72
2021/07/17 12:51:41;;;;;;;15.85;14.20;;;;;;;;;;4975892;28;20081;-72
2021/07/17 12:54:09;;;;;;;16.30;13.30;;;;;;;;;;4975579;28;20416;-72
2021/07/17 12:56:38;;;;;;;13.90;12.63;;;;;;;;;;4975450;28;20492;-73
2021/07/17 12:59:06;;;;;;;14.07;12.88;;;;;;;;;;4976076;28;20114;-72
2021/07/17 13:01:32;;;;;;;17.73;14.07;;;;;;;;;;4975625;28;20035;-72
2021/07/17 13:03:58;;;;;;;14.35;12.65;;;;;;;;;;4975457;28;20384;-71
2021/07/17 13:06:24;;;;;;;15.00;12.65;;;;;;;;;;4976028;28;20023;-71
2021/07/17 13:08:56;;;;;;;14.35;12.57;;;;;;;;;;4975645;28;20031;-72
2021/07/17 13:11:25;;;;;;;;;;;;;;;;;;4976093;28;20453;-71
2021/07/17 13:13:51;;;;;;;19.40;13.68;;;;;;;;;;4975322;28;19906;-72
2021/07/17 13:16:26;;;;;;;17.75;15.88;;;;;;;;;;4975376;28;20023;-72
2021/07/17 13:18:52;;;;;;;17.08;13.48;;;;;;;;;;4975740;28;20019;-72
2021/07/17 13:21:19;;;;;;;15.65;14.30;;;;;;;;;;4975685;28;20035;-72
2021/07/17 13:23:55;;;;;;;23.38;14.93;;;;;;;;;;4974790;28;20034;-72
2021/07/17 13:26:25;;;;;;;18.55;14.07;;;;;;;;;;4975727;28;20019;-72
2021/07/17 13:28:52;;;;;;;16.03;14.33;;;;;;;;;;4975995;28;20066;-72
2021/07/17 13:31:19;;;;;;;21.75;13.80;;;;;;;;;;4975649;28;20034;-72
2021/07/17 13:33:46;;;;;;;15.93;14.32;;;;;;;;;;4975384;28;20027;-72
2021/07/17 13:36:12;;;;;;;22.88;15.40;;;;;;;;;;4975428;28;20031;-73
2021/07/17 13:38:38;;;;;;;16.52;14.60;;;;;;;;;;4975545;28;20241;-72
2021/07/17 13:41:07;;;;;;;15.55;14.13;;;;;;;;;;4975464;28;20070;-72
2021/07/17 13:43:33;;;;;;;19.40;17.45;;;;;;;;;;4975337;28;20030;-72
2021/07/17 13:46:00;;;;;;;16.70;14.93;;;;;;;;;;4974100;28;20402;-71
2021/07/17 13:48:27;;;;;;;22.13;14.88;;;;;;;;;;4974350;28;20113;-71
2021/07/17 13:50:53;;;;;;;18.10;15.00;;;;;;;;;;4974354;28;20061;-70
2021/07/17 13:53:22;;;;;;;33.17;16.75;;;;;;;;;;4974620;28;20081;-72
2021/07/17 13:55:49;;;;;;;18.15;16.23;;;;;;;;;;4975093;28;20050;-72
2021/07/17 13:58:18;;;;;;;15.82;13.27;;;;;;;;;;4975589;28;20022;-70
2021/07/17 14:00:46;;;;;;;16.65;15.15;;;;;;;;;;4975313;28;20058;-71
2021/07/17 14:03:13;;;;;;;17.70;15.88;;;;;;;;;;4974585;28;20027;-72
2021/07/17 14:05:39;;;;;;;17.45;14.80;;;;;;;;;;4974334;28;20062;-71
2021/07/17 14:08:05;;;;;;;27.75;17.60;;;;;;;;;;4974539;28;20110;-72
2021/07/17 14:10:31;;;;;;;19.73;16.25;;;;;;;;;;4974811;28;20038;-73
2021/07/17 14:12:57;;;;;;;17.90;16.02;;;;;;;;;;4974870;28;20022;-71
2021/07/17 14:15:23;;;;;;;17.75;15.15;;;;;;;;;;4973760;28;20462;-71
2021/07/17 14:17:50;;;;;;;16.30;14.68;;;;;;;;;;4973875;28;20031;-71